RCSS/TSA METAR and TAF weather

Enter ICAO airport designator
Station Type Date Time Source
RCSS METAR 2021/07/28 03:30 UTC NOAA

RCSS 280330Z VRB03KT 9999 FEW025 SCT040 38/27 Q0997 NOSIG RMK A2944


Station Type Date Time Source
RCSS Decoded METAR 2021/07/28 03:30 UTC NOAA

Sungshan / Taipei, Taiwan (RCSS) 25-04N 121-33E
Jul 27, 2021 - 11:30 PM EDT / 2021.07.28 0330 UTC
Wind: Variable at 3 MPH (3 KT):0
Visibility: greater than 7 mile(s):0
Sky conditions: partly cloudy
Temperature: 100 F (38 C)
Heat index: 121.5 F (49.7 C):1
Dew Point: 80 F (27 C)
Relative Humidity: 53%
Pressure (altimeter): 29.44 in. Hg (0997 hPa)
ob: RCSS 280330Z VRB03KT 9999 FEW025 SCT040 38/27 Q0997 NOSIG RMK A2944
cycle: 3

Station Type Date Time Source
RCSS TAF 2021/07/27 18:03 UTC NOAA

TAF RCSS 271700Z 2718/2818 09005KT 9999 FEW015 BKN032
BECMG 2800/2802 28005KT
TEMPO 2806/2810 09005KT 2500 TSRA FEW010 FEW012CB BKN016 BKN030
BECMG 2810/2812 09005KT

Example: see airport list